.
WxDataArchive / Data Records for 2012-11-08
2012-11-07 November 2012 2012-11-09

Data Records for Thursday, 08 November 2012

Time	Temp	Chill	HIndex	Humid	Dewpt	 Wind 	HiWind	WindDir	Rain 	Barom 
-----	----	-----	------	-----	-----	------	------	-------	-----	----- 
00:00	29.4	29.4	29.4	87	26.0	0	0	---	0.00	30.156 
00:05	29.4	29.4	29.4	87	26.0	0	0	---	0.00	30.156 
00:10	29.4	29.4	29.4	87	26.0	0	0	---	0.00	30.156 
00:15	29.3	29.3	29.3	88	26.2	0	0	---	0.00	30.157 
00:20	29.3	29.3	29.3	88	26.2	0	0	---	0.00	30.157 
00:25	29.3	29.3	29.3	88	26.2	0	0	---	0.00	30.157 
00:30	29.3	29.3	29.3	88	26.2	0	0	---	0.00	30.163 
00:35	29.1	29.1	29.1	88	26.0	0	0	---	0.00	30.163 
00:40	29.1	29.1	29.1	88	26.0	0	0	---	0.00	30.163 
00:45	28.8	28.8	28.8	88	25.7	0	0	---	0.00	30.155 
00:50	28.7	28.7	28.7	88	25.6	0	0	---	0.00	30.155 
00:55	28.7	28.7	28.7	88	25.6	0	0	---	0.00	30.155 
01:00	28.5	28.5	28.5	88	25.4	0	0	---	0.00	30.155 
01:05	28.5	28.5	28.5	88	25.4	0	0	---	0.00	30.155 
01:10	28.4	28.4	28.4	88	25.3	0	0	---	0.00	30.155 
01:15	28.4	28.4	28.4	88	25.3	0	0	---	0.00	30.156 
01:20	28.2	28.2	28.2	89	25.4	0	0	---	0.00	30.156 
01:25	28.2	28.2	28.2	89	25.4	0	0	---	0.00	30.156 
01:30	28.2	28.2	28.2	89	25.4	0	0	---	0.00	30.156 
01:35	28.1	28.1	28.1	89	25.3	0	0	---	0.00	30.156 
01:40	28.1	28.1	28.1	89	25.3	0	0	---	0.00	30.156 
01:45	27.9	27.9	27.9	89	25.1	0	0	---	0.00	30.155 
01:50	27.9	27.9	27.9	89	25.1	0	0	---	0.00	30.155 
01:55	27.8	27.8	27.8	89	25.0	0	0	---	0.00	30.155 
02:00	27.6	27.6	27.6	89	24.8	0	0	---	0.00	30.155 
02:05	27.6	27.6	27.6	89	24.8	0	0	---	0.00	30.155 
02:10	27.5	27.5	27.5	89	24.7	0	0	---	0.00	30.155 
02:15	27.3	27.3	27.3	89	24.5	0	0	---	0.00	30.155 
02:20	27.3	27.3	27.3	89	24.5	0	0	---	0.00	30.155 
02:25	27.3	27.3	27.3	89	24.5	0	0	---	0.00	30.155 
02:30	27.3	27.3	27.3	89	24.5	0	0	---	0.00	30.156 
02:35	27.3	27.3	27.3	89	24.5	0	0	---	0.00	30.156 
02:40	27.3	27.3	27.3	89	24.5	0	0	---	0.00	30.156 
02:45	27.2	27.2	27.2	89	24.4	0	0	---	0.00	30.158 
02:50	27.2	27.2	27.2	89	24.4	0	0	---	0.00	30.158 
02:55	27.0	27.0	27.0	89	24.2	0	0	---	0.00	30.158 
03:00	26.9	26.9	26.9	89	24.1	0	0	---	0.00	30.158 
03:05	26.9	26.9	26.9	90	24.4	0	0	---	0.00	30.158 
03:10	26.7	26.7	26.7	90	24.2	0	0	---	0.00	30.158 
03:15	26.7	26.7	26.7	90	24.2	0	0	---	0.00	30.167 
03:20	26.7	26.7	26.7	90	24.2	0	0	---	0.00	30.167 
03:25	26.7	26.7	26.7	90	24.2	0	0	---	0.00	30.167 
03:30	26.7	26.7	26.7	90	24.2	0	0	---	0.00	30.170 
03:35	26.7	26.7	26.7	90	24.2	0	0	---	0.00	30.170 
03:40	26.6	26.6	26.6	90	24.1	0	0	---	0.00	30.170 
03:45	26.6	26.6	26.6	90	24.1	0	0	---	0.00	30.168 
03:50	26.6	26.6	26.6	90	24.1	0	0	---	0.00	30.168 
03:55	26.4	26.4	26.4	90	23.9	0	0	---	0.00	30.168 
04:00	26.4	26.4	26.4	90	23.9	0	0	---	0.00	30.171 
04:05	26.4	26.4	26.4	90	23.9	0	0	---	0.00	30.171 
04:10	26.4	26.4	26.4	90	23.9	0	0	---	0.00	30.171 
04:15	26.4	26.4	26.4	90	23.9	0	0	---	0.00	30.174 
04:20	26.4	26.4	26.4	90	23.9	0	0	---	0.00	30.174 
04:25	26.4	26.4	26.4	90	23.9	0	0	---	0.00	30.174 
04:30	26.4	26.4	26.4	90	23.9	0	0	---	0.00	30.177 
04:35	26.3	26.3	26.3	90	23.8	0	0	---	0.00	30.177 
04:40	26.1	26.1	26.1	90	23.6	0	0	---	0.00	30.177 
04:45	26.1	26.1	26.1	90	23.6	0	0	---	0.00	30.188 
04:50	26.0	26.0	26.0	90	23.5	0	0	---	0.00	30.188 
04:55	26.0	26.0	26.0	90	23.5	0	0	---	0.00	30.188 
05:00	26.0	26.0	26.0	90	23.5	0	0	---	0.00	30.189 
05:05	25.8	25.8	25.8	90	23.3	0	0	---	0.00	30.189 
05:10	25.8	25.8	25.8	90	23.3	0	0	---	0.00	30.189 
05:15	25.7	25.7	25.7	90	23.2	0	0	---	0.00	30.194 
05:20	25.6	25.6	25.6	90	23.1	0	0	---	0.00	30.194 
05:25	25.6	25.6	25.6	90	23.1	0	0	---	0.00	30.194 
05:30	25.4	25.4	25.4	90	22.9	0	0	---	0.00	30.195 
05:35	25.4	25.4	25.4	90	22.9	0	0	---	0.00	30.195 
05:40	25.4	25.4	25.4	90	22.9	0	0	---	0.00	30.195 
05:45	25.4	25.4	25.4	90	22.9	0	0	---	0.00	30.195 
05:50	25.4	25.4	25.4	90	22.9	0	0	---	0.00	30.195 
05:55	25.4	25.4	25.4	91	23.1	0	0	---	0.00	30.195 
06:00	25.4	25.4	25.4	91	23.1	0	0	---	0.00	30.200 
06:05	25.3	25.3	25.3	90	22.8	0	0	---	0.00	30.200 
06:10	25.3	25.3	25.3	90	22.8	0	0	---	0.00	30.200 
06:15	25.1	25.1	25.1	90	22.6	0	0	---	0.00	30.208 
06:20	25.0	25.0	25.0	90	22.5	0	0	---	0.00	30.208 
06:25	25.0	25.0	25.0	91	22.8	0	0	---	0.00	30.208 
06:30	25.0	25.0	25.0	91	22.8	0	0	---	0.00	30.210 
06:35	25.0	25.0	25.0	91	22.8	0	0	---	0.00	30.210 
06:40	25.0	25.0	25.0	91	22.8	0	0	---	0.00	30.210 
06:45	24.8	24.8	24.8	91	22.6	0	0	---	0.00	30.210 
06:50	24.8	24.8	24.8	91	22.6	0	0	---	0.00	30.210 
06:55	24.8	24.8	24.8	91	22.6	0	0	---	0.00	30.210 
07:00	24.8	24.8	24.8	91	22.6	0	0	---	0.00	30.215 
07:05	24.8	24.8	24.8	91	22.6	0	0	---	0.00	30.215 
07:10	24.8	24.8	24.8	91	22.6	0	0	---	0.00	30.215 
07:15	24.7	24.7	24.7	91	22.5	0	0	---	0.00	30.226 
07:20	24.8	24.8	24.8	91	22.6	0	0	---	0.00	30.226 
07:25	24.8	24.8	24.8	91	22.6	0	0	---	0.00	30.226 
07:30	24.8	24.8	24.8	91	22.6	0	0	---	0.00	30.230 
07:35	24.8	24.8	24.8	91	22.6	0	0	---	0.00	30.230 
07:40	24.8	24.8	24.8	91	22.6	0	0	---	0.00	30.230 
07:45	24.8	24.8	24.8	91	22.6	0	0	---	0.00	30.232 
07:50	25.0	25.0	25.0	91	22.8	0	0	---	0.00	30.232 
07:55	25.1	25.1	25.1	91	22.9	0	0	---	0.00	30.232 
08:00	25.4	25.4	25.4	91	23.1	0	0	---	0.00	30.238 
08:05	25.6	25.6	25.6	92	23.6	0	0	---	0.00	30.238 
08:10	26.0	26.0	26.0	92	24.0	0	0	---	0.00	30.238 
08:15	27.0	27.0	27.0	93	25.3	0	0	---	0.00	30.238 
08:20	27.6	27.6	27.6	92	25.6	0	0	---	0.00	30.238 
08:25	28.1	28.1	28.1	92	26.1	0	0	---	0.00	30.238 
08:30	29.1	29.1	29.1	93	27.3	0	0	---	0.00	30.242 
08:35	30.0	30.0	30.0	93	28.2	0	0	---	0.00	30.242 
08:40	30.9	30.9	30.9	93	29.1	0	0	---	0.00	30.242 
08:45	31.9	31.9	31.9	94	30.4	0	0	---	0.00	30.243 
08:50	32.5	32.5	32.5	92	30.4	0	0	---	0.00	30.243 
08:55	33.2	33.2	33.2	93	31.4	0	0	---	0.00	30.243 
09:00	34.0	34.0	34.0	92	31.9	0	0	---	0.00	30.241 
09:05	34.6	34.6	34.6	92	32.5	0	0	---	0.00	30.241 
09:10	35.3	35.3	35.3	91	32.9	0	0	---	0.00	30.241 
09:15	36.0	36.0	36.0	91	33.6	0	0	---	0.00	30.239 
09:20	36.9	36.9	36.9	89	34.0	0	0	---	0.00	30.239 
09:25	37.9	37.9	37.9	86	34.1	0	0	---	0.00	30.239 
09:30	38.6	38.6	38.6	84	34.2	0	0	---	0.00	30.238 
09:35	38.9	38.9	38.9	83	34.2	0	0	---	0.00	30.238 
09:40	38.9	38.9	38.9	83	34.2	0	0	---	0.00	30.238 
09:45	39.1	39.1	39.1	83	34.4	0	1	68	0.00	30.237 
09:50	39.3	39.3	39.3	81	34.0	0	2	68	0.00	30.237 
09:55	39.6	39.6	39.6	80	33.9	0	1	68	0.00	30.237 
10:00	40.1	40.1	40.1	79	34.1	0	1	68	0.00	30.234 
10:05	40.5	40.5	40.5	77	33.9	0	1	68	0.00	30.234 
10:10	40.8	40.8	40.8	75	33.5	0	1	68	0.00	30.234 
10:15	41.2	41.2	41.2	73	33.2	0	1	68	0.00	30.236 
10:20	41.3	41.3	41.3	72	33.0	0	2	68	0.00	30.236 
10:25	41.6	41.6	41.6	71	32.9	0	1	68	0.00	30.236 
10:30	42.1	42.1	42.1	71	33.4	0	1	68	0.00	30.235 
10:35	42.5	42.5	42.5	70	33.4	0	1	68	0.00	30.235 
10:40	42.8	42.8	42.8	69	33.3	0	2	68	0.00	30.235 
10:45	43.2	43.2	43.2	68	33.4	0	1	68	0.00	30.236 
10:50	43.6	43.6	43.6	65	32.6	0	1	68	0.00	30.236 
10:55	44.1	44.1	44.1	65	33.1	0	2	22	0.00	30.236 
11:00	44.3	44.3	44.3	64	32.9	0	2	22	0.00	30.233 
11:05	44.6	44.6	44.6	63	32.8	0	2	22	0.00	30.233 
11:10	45.1	45.1	45.1	62	32.9	0	3	292	0.00	30.233 
11:15	45.4	45.4	45.4	59	31.9	0	3	292	0.00	30.230 
11:20	45.8	45.8	45.8	59	32.3	0	3	292	0.00	30.230 
11:25	46.1	46.1	46.1	58	32.2	0	2	292	0.00	30.230 
11:30	46.4	46.4	46.4	57	32.0	0	1	292	0.00	30.221 
11:35	46.5	46.5	46.5	57	32.1	0	2	292	0.00	30.221 
11:40	46.7	46.7	46.7	55	31.4	0	2	292	0.00	30.221 
11:45	47.0	47.0	47.0	56	32.1	0	2	292	0.00	30.217 
11:50	47.3	47.3	47.3	54	31.5	0	2	292	0.00	30.217 
11:55	47.4	47.4	47.4	53	31.1	1	3	292	0.00	30.217 
12:00	47.7	47.7	47.7	53	31.4	0	2	292	0.00	30.213 
12:05	48.2	48.2	48.2	54	32.3	0	2	292	0.00	30.213 
12:10	48.3	48.3	48.3	53	32.0	0	2	292	0.00	30.213 
12:15	48.5	48.5	48.5	52	31.7	0	2	292	0.00	30.203 
12:20	48.5	48.5	48.5	52	31.7	1	2	292	0.00	30.203 
12:25	48.5	48.5	48.5	52	31.7	1	2	292	0.00	30.203 
12:30	48.5	48.5	48.5	52	31.7	1	2	292	0.00	30.201 
12:35	48.6	48.6	48.6	52	31.8	0	3	292	0.00	30.201 
12:40	48.8	48.8	48.8	52	32.0	1	3	315	0.00	30.201 
12:45	48.9	48.9	48.9	53	32.5	0	3	248	0.00	30.193 
12:50	49.2	49.2	49.2	51	31.9	1	3	292	0.00	30.193 
12:55	49.4	49.4	49.4	50	31.5	0	2	292	0.00	30.193 
13:00	49.5	49.5	49.5	51	32.1	0	2	315	0.00	30.184 
13:05	49.6	49.6	49.6	49	31.2	0	2	315	0.00	30.184 
13:10	49.8	49.8	49.8	49	31.4	0	1	315	0.00	30.184 
13:15	49.6	49.6	49.6	46	29.7	1	3	315	0.00	30.183 
13:20	49.6	49.6	49.6	49	31.2	1	3	292	0.00	30.183 
13:25	49.8	49.8	49.8	48	30.9	0	2	292	0.00	30.183 
13:30	49.8	49.8	49.8	48	30.9	0	2	292	0.00	30.180 
13:35	49.8	49.8	49.8	47	30.4	0	4	292	0.00	30.180 
13:40	49.9	49.9	49.9	47	30.5	0	2	248	0.00	30.180 
13:45	50.2	50.2	50.2	48	31.3	0	1	248	0.00	30.170 
13:50	50.2	50.2	50.2	48	31.3	0	3	315	0.00	30.170 
13:55	50.5	50.5	50.5	47	31.0	1	2	315	0.00	30.170 
14:00	50.7	50.7	50.7	47	31.2	1	2	315	0.00	30.170 
14:05	50.8	50.8	50.8	47	31.3	0	2	315	0.00	30.170 
14:10	50.8	50.8	50.8	47	31.3	1	2	315	0.00	30.170 
14:15	51.0	51.0	51.0	48	32.0	0	2	315	0.00	30.169 
14:20	51.0	51.0	51.0	47	31.5	1	3	315	0.00	30.169 
14:25	50.8	50.8	50.8	47	31.3	0	3	315	0.00	30.169 
14:30	50.8	50.8	50.8	47	31.3	1	3	248	0.00	30.168 
14:35	50.7	50.7	50.7	48	31.7	1	3	270	0.00	30.168 
14:40	50.7	50.7	50.7	48	31.7	0	2	270	0.00	30.168 
14:45	50.8	50.8	50.8	49	32.3	1	3	270	0.00	30.165 
14:50	51.0	51.0	51.0	49	32.5	1	3	270	0.00	30.165 
14:55	51.3	51.3	51.3	49	32.8	1	3	270	0.00	30.165 
15:00	51.6	51.6	51.6	47	32.0	0	1	270	0.00	30.159 
15:05	51.3	51.3	51.3	49	32.8	0	2	270	0.00	30.159 
15:10	51.1	51.1	51.1	49	32.6	0	3	270	0.00	30.159 
15:15	51.0	51.0	51.0	48	32.0	1	2	270	0.00	30.156 
15:20	50.8	50.8	50.8	49	32.3	0	1	270	0.00	30.156 
15:25	50.5	50.5	50.5	49	32.1	1	4	270	0.00	30.156 
15:30	50.2	50.2	50.2	50	32.3	0	1	270	0.00	30.155 
15:35	50.1	50.1	50.1	51	32.7	0	1	270	0.00	30.155 
15:40	49.9	49.9	49.9	52	33.0	0	2	270	0.00	30.155 
15:45	49.8	49.8	49.8	54	33.8	1	3	270	0.00	30.159 
15:50	49.5	49.5	49.5	54	33.6	1	3	270	0.00	30.159 
15:55	49.4	49.4	49.4	55	33.9	2	3	270	0.00	30.159 
16:00	49.1	49.1	49.1	57	34.5	1	4	248	0.00	30.168 
16:05	48.8	48.8	48.8	58	34.7	1	4	248	0.00	30.168 
16:10	48.6	48.6	48.6	58	34.5	1	3	248	0.00	30.168 
16:15	48.3	48.3	48.3	59	34.6	1	4	248	0.00	30.171 
16:20	48.2	48.2	48.2	60	35.0	1	3	248	0.00	30.171 
16:25	47.9	47.9	47.9	59	34.3	1	4	248	0.00	30.171 
16:30	47.6	47.6	47.6	60	34.4	1	5	248	0.00	30.172 
16:35	47.1	47.1	47.1	60	33.9	1	4	248	0.00	30.172 
16:40	47.0	47.0	47.0	61	34.3	1	4	248	0.00	30.172 
16:45	46.7	46.7	46.7	61	34.0	0	2	248	0.00	30.171 
16:50	46.4	46.4	46.4	62	34.1	0	1	248	0.00	30.171 
16:55	46.2	46.2	46.2	62	33.9	0	2	248	0.00	30.171 
17:00	46.0	46.0	46.0	63	34.1	0	1	248	0.00	30.170 
17:05	45.7	45.7	45.7	63	33.8	0	2	248	0.00	30.170 
17:10	45.5	45.5	45.5	63	33.6	0	2	248	0.00	30.170 
17:15	45.4	45.4	45.4	63	33.6	0	1	248	0.00	30.173 
17:20	45.1	45.1	45.1	64	33.7	0	1	248	0.00	30.173 
17:25	44.8	44.8	44.8	64	33.4	0	1	248	0.00	30.173 
17:30	44.6	44.6	44.6	65	33.6	0	1	248	0.00	30.173 
17:35	44.3	44.3	44.3	65	33.3	0	1	248	0.00	30.173 
17:40	44.1	44.1	44.1	65	33.1	0	1	248	0.00	30.173 
17:45	43.8	43.8	43.8	66	33.2	0	1	248	0.00	30.175 
17:50	43.5	43.5	43.5	66	32.9	0	1	248	0.00	30.175 
17:55	43.3	43.3	43.3	67	33.1	0	1	248	0.00	30.175 
18:00	43.2	43.2	43.2	67	33.0	0	0	---	0.00	30.177 
18:05	43.1	43.1	43.1	67	32.9	0	0	---	0.00	30.177 
18:10	42.8	42.8	42.8	68	33.0	0	1	248	0.00	30.177 
18:15	42.6	42.6	42.6	68	32.8	0	1	248	0.00	30.175 
18:20	42.3	42.3	42.3	69	32.9	0	1	248	0.00	30.175 
18:25	42.2	42.2	42.2	69	32.8	0	1	248	0.00	30.175 
18:30	42.1	42.1	42.1	69	32.7	0	1	248	0.00	30.179 
18:35	41.9	41.9	41.9	69	32.5	0	0	---	0.00	30.179 
18:40	41.8	41.8	41.8	69	32.4	0	0	---	0.00	30.179 
18:45	41.3	41.3	41.3	70	32.3	0	0	---	0.00	30.180 
18:50	41.1	41.1	41.1	70	32.1	0	0	---	0.00	30.180 
18:55	40.8	40.8	40.8	71	32.1	0	0	---	0.00	30.180 
19:00	40.5	40.5	40.5	72	32.2	0	0	---	0.00	30.185 
19:05	40.3	40.3	40.3	73	32.3	0	0	---	0.00	30.185 
19:10	40.2	40.2	40.2	73	32.2	0	0	---	0.00	30.185 
19:15	40.1	40.1	40.1	73	32.2	0	0	---	0.00	30.192 
19:20	39.9	39.9	39.9	73	32.0	0	0	---	0.00	30.192 
19:25	39.8	39.8	39.8	74	32.2	0	0	---	0.00	30.192 
19:30	39.5	39.5	39.5	74	31.9	0	0	---	0.00	30.189 
19:35	39.5	39.5	39.5	75	32.2	0	1	248	0.00	30.189 
19:40	39.5	39.5	39.5	75	32.2	0	0	---	0.00	30.189 
19:45	39.5	39.5	39.5	75	32.2	0	0	---	0.00	30.188 
19:50	39.3	39.3	39.3	75	32.0	0	0	---	0.00	30.188 
19:55	39.2	39.2	39.2	75	32.0	0	0	---	0.00	30.188 
20:00	38.9	38.9	38.9	75	31.7	0	0	---	0.00	30.192 
20:05	38.6	38.6	38.6	76	31.7	0	0	---	0.00	30.192 
20:10	38.3	38.3	38.3	76	31.4	0	0	---	0.00	30.192 
20:15	37.9	37.9	37.9	77	31.3	0	0	---	0.00	30.179 
20:20	37.6	37.6	37.6	78	31.4	0	0	---	0.00	30.179 
20:25	37.2	37.2	37.2	77	30.7	0	0	---	0.00	30.179 
20:30	36.9	36.9	36.9	78	30.7	0	0	---	0.00	30.177 
20:35	36.6	36.6	36.6	79	30.7	0	0	---	0.00	30.177 
20:40	36.3	36.3	36.3	79	30.4	0	0	---	0.00	30.177 
20:45	36.0	36.0	36.0	79	30.1	0	0	---	0.00	30.176 
20:50	35.6	35.6	35.6	80	30.1	0	0	---	0.00	30.176 
20:55	35.3	35.3	35.3	80	29.8	0	0	---	0.00	30.176 
21:00	35.0	35.0	35.0	80	29.5	0	0	---	0.00	30.180 
21:05	34.9	34.9	34.9	81	29.7	0	0	---	0.00	30.180 
21:10	34.7	34.7	34.7	82	29.8	0	0	---	0.00	30.180 
21:15	34.6	34.6	34.6	82	29.7	0	0	---	0.00	30.174 
21:20	34.4	34.4	34.4	83	29.8	0	0	---	0.00	30.174 
21:25	34.3	34.3	34.3	83	29.7	0	0	---	0.00	30.174 
21:30	34.0	34.0	34.0	84	29.7	0	0	---	0.00	30.170 
21:35	33.8	33.8	33.8	84	29.5	0	0	---	0.00	30.170 
21:40	33.5	33.5	33.5	84	29.2	0	0	---	0.00	30.170 
21:45	33.4	33.4	33.4	84	29.1	0	0	---	0.00	30.172 
21:50	33.4	33.4	33.4	85	29.4	0	0	---	0.00	30.172 
21:55	33.2	33.2	33.2	85	29.2	0	0	---	0.00	30.172 
22:00	33.1	33.1	33.1	85	29.1	0	0	---	0.00	30.173 
22:05	32.9	32.9	32.9	86	29.2	0	0	---	0.00	30.173 
22:10	32.8	32.8	32.8	86	29.1	0	0	---	0.00	30.173 
22:15	32.7	32.7	32.7	87	29.3	0	0	---	0.00	30.162 
22:20	32.7	32.7	32.7	87	29.3	0	0	---	0.00	30.162 
22:25	32.5	32.5	32.5	87	29.1	0	0	---	0.00	30.162 
22:30	32.5	32.5	32.5	87	29.1	0	0	---	0.00	30.158 
22:35	32.4	32.4	32.4	87	29.0	0	0	---	0.00	30.158 
22:40	32.2	32.2	32.2	87	28.8	0	0	---	0.00	30.158 
22:45	32.1	32.1	32.1	87	28.7	0	0	---	0.00	30.157 
22:50	31.9	31.9	31.9	87	28.5	0	0	---	0.00	30.157 
22:55	31.6	31.6	31.6	87	28.2	0	0	---	0.00	30.157 
23:00	31.6	31.6	31.6	88	28.5	0	0	---	0.00	30.157 
23:05	31.5	31.5	31.5	88	28.4	0	0	---	0.00	30.157 
23:10	31.5	31.5	31.5	88	28.4	0	0	---	0.00	30.157 
23:15	31.3	31.3	31.3	88	28.2	0	0	---	0.00	30.152 
23:20	31.3	31.3	31.3	88	28.2	0	0	---	0.00	30.152 
23:25	31.2	31.2	31.2	88	28.1	0	0	---	0.00	30.152 
23:30	31.0	31.0	31.0	88	27.9	0	0	---	0.00	30.154 
23:35	30.9	30.9	30.9	88	27.8	0	0	---	0.00	30.154 
23:40	30.9	30.9	30.9	88	27.8	0	0	---	0.00	30.154 
23:45	30.7	30.7	30.7	89	27.8	0	0	---	0.00	30.157 
23:50	30.7	30.7	30.7	89	27.8	0	0	---	0.00	30.157 
23:55	30.6	30.6	30.6	89	27.8	0	0	---	0.00	30.157 

CoCoRaHS
IN-AL-39
A2 Web Hosting
Creative Commons License
GoDaddy
search engine by freefind advanced

loaded 2018-11-19 10:48:22 • last modified 2010-11-18 10:43:29
Privacy PolicyDisclaimer
• wx.awcolley.com is powered by PmWiki v.2002016 •
• all content (unless otherwise noted) © 2018 A W Colley